Time;durP1;ratioP1;P1;durP2;ratioP2;P2;SDS_P1;SDS_P2;PMS_P1;PMS_P2;Temp;Humidity;BMP_temperature;BMP_pressure;BME280_temperature;BME280_humidity;BME280_pressure;Samples;Min_cycle;Max_cycle;Signal;HPM_P1;HPM_P2
2022/03/10 00:02:23;;;;;;;;;;;;;;;;;;10268724;28;20490;-72
2022/03/10 00:07:26;;;;;;;8.77;3.80;;;;;;;;;;10260494;28;19922;-73
2022/03/10 00:12:31;;;;;;;8.27;4.20;;;;;;;;;;10260894;28;20039;-73
2022/03/10 00:17:34;;;;;;;6.93;3.77;;;;;;;;;;10274119;28;20043;-74
2022/03/10 00:22:45;;;;;;;8.45;3.45;;;;;;;;;;10268549;28;20094;-75
2022/03/10 00:27:49;;;;;;;8.40;3.43;;;;;;;;;;10254270;28;20043;-75
2022/03/10 00:32:52;;;;;;;7.53;2.78;;;;;;;;;;10272932;28;20226;-74
2022/03/10 00:37:56;;;;;;;11.23;3.63;;;;;;;;;;10252208;28;20091;-74
2022/03/10 00:43:00;;;;;;;6.63;3.13;;;;;;;;;;10256306;28;20407;-73
2022/03/10 00:48:03;;;;;;;;;;;;;;;;;;10269794;28;20526;-73
2022/03/10 00:53:05;;;;;;;10.20;3.40;;;;;;;;;;10247341;28;20279;-73
2022/03/10 00:58:10;;;;;;;9.93;4.03;;;;;;;;;;10262461;23;20047;-72
2022/03/10 01:03:12;;;;;;;;;;;;;;;;;;10277807;28;20027;-72
2022/03/10 01:08:15;;;;;;;9.70;3.63;;;;;;;;;;10258577;28;20341;-72
2022/03/10 01:13:20;;;;;;;9.00;3.47;;;;;;;;;;10276095;28;20447;-72
2022/03/10 01:18:23;;;;;;;7.33;2.83;;;;;;;;;;10260051;28;20050;-72
2022/03/10 01:23:25;;;;;;;8.50;3.50;;;;;;;;;;10252135;28;20505;-72
2022/03/10 01:28:30;;;;;;;8.27;3.63;;;;;;;;;;10272967;28;20035;-71
2022/03/10 01:33:34;;;;;;;;;;;;;;;;;;10274366;28;20043;-71
2022/03/10 01:38:39;;;;;;;8.73;3.60;;;;;;;;;;10276096;28;19988;-72
2022/03/10 01:43:59;;;;;;;11.93;3.40;;;;;;;;;;10278709;28;20089;-72
2022/03/10 01:49:02;;;;;;;10.13;4.00;;;;;;;;;;10272147;28;20167;-70
2022/03/10 01:54:05;;;;;;;11.80;3.60;;;;;;;;;;10263517;28;20039;-73
2022/03/10 01:59:10;;;;;;;10.73;4.23;;;;;;;;;;10286312;28;20554;-72
2022/03/10 02:04:13;;;;;;;5.87;2.97;;;;;;;;;;10282455;28;20113;-71
2022/03/10 02:19:59;;;;;;;6.97;3.27;;;;;;;;;;10286026;28;20055;-72
2022/03/10 02:25:04;;;;;;;10.70;4.28;;;;;;;;;;10280099;28;20062;-72
2022/03/10 02:30:10;;;;;;;8.23;3.57;;;;;;;;;;10285436;28;20039;-74
2022/03/10 02:35:19;;;;;;;9.10;3.40;;;;;;;;;;10274404;28;20448;-73
2022/03/10 02:40:23;;;;;;;11.33;3.67;;;;;;;;;;10263205;28;20050;-73
2022/03/10 02:45:26;;;;;;;11.02;3.55;;;;;;;;;;10285096;28;20675;-73
2022/03/10 02:50:30;;;;;;;7.80;2.80;;;;;;;;;;10264539;23;20134;-67
2022/03/10 02:55:34;;;;;;;12.33;4.03;;;;;;;;;;10238145;28;20043;-67
2022/03/10 03:00:38;;;;;;;13.30;3.73;;;;;;;;;;10221608;28;20043;-67
2022/03/10 03:05:43;;;;;;;9.03;3.50;;;;;;;;;;10238905;29;20442;-67
2022/03/10 03:10:48;;;;;;;7.23;3.10;;;;;;;;;;10237865;28;20051;-67
2022/03/10 03:15:52;;;;;;;9.00;3.43;;;;;;;;;;10235872;28;20418;-68
2022/03/10 03:20:55;;;;;;;6.73;2.40;;;;;;;;;;10235552;28;20051;-68
2022/03/10 03:25:59;;;;;;;6.30;2.97;;;;;;;;;;10221773;29;20066;-68
2022/03/10 03:31:03;;;;;;;9.07;3.00;;;;;;;;;;10234797;28;20057;-67
2022/03/10 03:36:07;;;;;;;11.52;3.15;;;;;;;;;;10239168;29;20031;-68
2022/03/10 03:41:11;;;;;;;7.33;3.23;;;;;;;;;;10230605;28;20392;-67
2022/03/10 03:46:14;;;;;;;8.68;3.58;;;;;;;;;;10235719;28;20031;-67
2022/03/10 03:51:17;;;;;;;8.57;2.83;;;;;;;;;;10237007;28;20043;-66
2022/03/10 03:56:21;;;;;;;8.17;3.23;;;;;;;;;;10237225;28;20247;-67
2022/03/10 04:01:24;;;;;;;5.80;2.55;;;;;;;;;;10236729;28;20589;-67
2022/03/10 04:06:27;;;;;;;6.05;2.45;;;;;;;;;;10218183;29;20129;-66
2022/03/10 04:11:32;;;;;;;10.47;3.70;;;;;;;;;;10219110;29;20051;-67
2022/03/10 04:16:35;;;;;;;7.50;3.17;;;;;;;;;;10239512;29;20043;-68
2022/03/10 04:21:38;;;;;;;7.17;2.87;;;;;;;;;;10235969;28;20399;-67
2022/03/10 04:26:43;;;;;;;9.00;3.30;;;;;;;;;;10237942;29;20057;-66
2022/03/10 04:31:45;;;;;;;7.47;3.08;;;;;;;;;;10223383;28;20078;-67
2022/03/10 04:36:49;;;;;;;9.43;3.03;;;;;;;;;;10226500;28;20139;-67
2022/03/10 04:41:53;;;;;;;8.30;2.63;;;;;;;;;;10234654;28;20069;-66
2022/03/10 04:46:56;;;;;;;5.85;3.03;;;;;;;;;;10217442;28;20122;-67
2022/03/10 04:52:01;;;;;;;8.20;3.03;;;;;;;;;;10220481;28;20047;-68
2022/03/10 04:57:07;;;;;;;8.20;2.97;;;;;;;;;;10221773;29;20138;-67
2022/03/10 05:02:10;;;;;;;10.27;3.40;;;;;;;;;;10213926;28;20114;-66
2022/03/10 05:07:13;;;;;;;9.38;3.13;;;;;;;;;;10224442;29;20039;-66
2022/03/10 05:12:18;;;;;;;8.05;3.60;;;;;;;;;;10237616;28;20114;-67
2022/03/10 05:17:23;;;;;;;7.03;2.60;;;;;;;;;;10237343;29;20392;-67
2022/03/10 05:22:41;;;;;;;1.73;1.00;;;;;;;;;;10235783;28;20032;-68
2022/03/10 05:27:46;;;;;;;2.47;1.53;;;;;;;;;;10231971;28;20041;-68
2022/03/10 05:32:49;;;;;;;3.13;1.47;;;;;;;;;;10233116;28;20063;-67
2022/03/10 05:37:53;;;;;;;;;;;;;;;;;;10200707;28;20445;-66
2022/03/10 05:42:58;;;;;;;5.57;2.40;;;;;;;;;;10201657;28;20021;-67
2022/03/10 05:48:01;;;;;;;8.90;2.67;;;;;;;;;;10225490;28;20105;-67
2022/03/10 05:53:06;;;;;;;3.90;1.27;;;;;;;;;;10234143;28;20051;-68
2022/03/10 05:58:16;;;;;;;6.53;2.20;;;;;;;;;;10251917;28;20039;-68
2022/03/10 06:03:19;;;;;;;5.70;2.53;;;;;;;;;;10227040;28;20074;-67
2022/03/10 06:08:24;;;;;;;1.90;1.10;;;;;;;;;;10247298;28;20131;-69
2022/03/10 06:13:28;;;;;;;1.53;1.00;;;;;;;;;;10229248;29;20360;-65
2022/03/10 06:18:31;;;;;;;8.45;2.67;;;;;;;;;;10231183;28;20098;-68
2022/03/10 06:23:34;;;;;;;7.03;3.17;;;;;;;;;;10240217;29;20032;-66
2022/03/10 06:28:38;;;;;;;8.50;3.50;;;;;;;;;;10225637;28;20062;-66
2022/03/10 06:33:41;;;;;;;10.85;3.30;;;;;;;;;;10232857;29;20356;-67
2022/03/10 06:38:46;;;;;;;9.27;3.47;;;;;;;;;;10241337;28;20149;-66
2022/03/10 06:43:50;;;;;;;13.52;5.60;;;;;;;;;;10236255;28;20430;-67
2022/03/10 06:48:53;;;;;;;10.30;3.97;;;;;;;;;;10241709;28;20534;-66
2022/03/10 06:53:56;;;;;;;11.23;4.18;;;;;;;;;;10210933;29;20036;-67
2022/03/10 06:59:01;;;;;;;12.50;4.50;;;;;;;;;;10218317;28;20502;-67
2022/03/10 07:04:04;;;;;;;9.27;4.70;;;;;;;;;;10231392;28;20385;-68
2022/03/10 07:09:07;;;;;;;11.60;4.63;;;;;;;;;;10231039;28;20035;-66
2022/03/10 07:14:11;;;;;;;10.33;4.60;;;;;;;;;;10216693;28;20074;-67
2022/03/10 07:19:17;;;;;;;11.52;4.93;;;;;;;;;;10231545;28;20288;-67
2022/03/10 07:24:20;;;;;;;12.13;4.93;;;;;;;;;;10222934;28;20050;-67
2022/03/10 07:29:25;;;;;;;11.77;5.03;;;;;;;;;;10222720;28;20054;-66
2022/03/10 07:34:31;;;;;;;8.70;4.00;;;;;;;;;;10236742;28;20042;-67
2022/03/10 07:39:34;;;;;;;;;;;;;;;;;;10241573;28;20031;-67
2022/03/10 07:44:38;;;;;;;8.00;4.30;;;;;;;;;;10230475;28;19996;-68
2022/03/10 07:49:41;;;;;;;9.57;5.10;;;;;;;;;;10240503;28;20074;-66
2022/03/10 07:54:44;;;;;;;9.77;4.60;;;;;;;;;;10237648;28;20241;-68
2022/03/10 07:59:48;;;;;;;10.43;4.97;;;;;;;;;;10236320;28;20479;-67
2022/03/10 08:04:51;;;;;;;8.50;4.57;;;;;;;;;;10241474;28;20102;-67
2022/03/10 08:09:54;;;;;;;10.93;5.65;;;;;;;;;;10240703;28;20050;-67
2022/03/10 08:14:59;;;;;;;19.17;6.15;;;;;;;;;;10224587;28;20121;-67
2022/03/10 08:20:02;;;;;;;78.63;13.27;;;;;;;;;;10240867;28;20043;-68
2022/03/10 08:25:05;;;;;;;9.18;5.15;;;;;;;;;;10214333;28;20472;-67
2022/03/10 08:30:13;;;;;;;13.23;5.22;;;;;;;;;;10239636;28;20043;-68
2022/03/10 08:35:17;;;;;;;9.68;5.40;;;;;;;;;;10224807;29;20039;-67
2022/03/10 08:40:20;;;;;;;8.55;5.20;;;;;;;;;;10225188;28;20047;-67
2022/03/10 08:45:25;;;;;;;11.13;5.70;;;;;;;;;;10236769;28;20165;-67
2022/03/10 08:50:29;;;;;;;9.85;5.95;;;;;;;;;;10225992;23;20479;-70
2022/03/10 08:55:32;;;;;;;8.05;5.50;;;;;;;;;;10237063;28;20415;-71
2022/03/10 09:00:37;;;;;;;11.10;6.35;;;;;;;;;;10238773;28;20027;-71
2022/03/10 09:05:42;;;;;;;8.68;5.50;;;;;;;;;;10231444;28;20407;-72
2022/03/10 09:10:45;;;;;;;8.00;5.38;;;;;;;;;;10230003;28;20047;-72
2022/03/10 09:15:50;;;;;;;9.50;5.43;;;;;;;;;;10226487;28;20038;-72
2022/03/10 09:20:53;;;;;;;5.47;3.28;;;;;;;;;;10240819;28;20047;-72
2022/03/10 09:25:57;;;;;;;6.80;4.32;;;;;;;;;;10246506;28;20078;-72
2022/03/10 09:31:01;;;;;;;9.68;6.47;;;;;;;;;;10233060;28;20046;-72
2022/03/10 09:36:07;;;;;;;9.75;5.53;;;;;;;;;;10237933;28;20031;-72
2022/03/10 09:41:10;;;;;;;9.05;5.50;;;;;;;;;;10237631;28;20304;-72
2022/03/10 09:46:14;;;;;;;11.55;5.40;;;;;;;;;;10227858;29;20032;-72
2022/03/10 09:51:19;;;;;;;9.88;5.38;;;;;;;;;;10242596;29;20544;-73
2022/03/10 09:56:23;;;;;;;7.25;5.00;;;;;;;;;;10249158;28;20444;-72
2022/03/10 10:01:28;;;;;;;8.20;5.38;;;;;;;;;;10243440;28;20127;-72
2022/03/10 10:06:31;;;;;;;7.22;5.18;;;;;;;;;;10228340;29;20047;-70
2022/03/10 10:11:34;;;;;;;9.32;6.05;;;;;;;;;;10243547;28;20444;-72
2022/03/10 10:16:48;;;;;;;8.35;5.45;;;;;;;;;;10246935;29;20094;-71
2022/03/10 10:22:06;;;;;;;7.53;5.20;;;;;;;;;;10240946;28;20062;-72
2022/03/10 10:27:14;;;;;;;8.90;5.70;;;;;;;;;;10230661;28;20337;-72
2022/03/10 10:32:31;;;;;;;11.20;6.18;;;;;;;;;;10225825;28;20086;-71
2022/03/10 10:37:35;;;;;;;8.70;5.43;;;;;;;;;;10236177;28;20046;-74
2022/03/10 10:42:42;;;;;;;6.75;5.18;;;;;;;;;;10244938;28;20050;-73
2022/03/10 10:47:59;;;;;;;8.23;5.18;;;;;;;;;;10242136;28;20158;-73
2022/03/10 10:53:03;;;;;;;8.77;4.97;;;;;;;;;;10234225;28;20050;-71
2022/03/10 10:58:07;;;;;;;7.10;4.70;;;;;;;;;;10234400;29;20047;-72
2022/03/10 11:03:22;;;;;;;7.97;4.78;;;;;;;;;;10241614;29;21375;-72
2022/03/10 11:08:28;;;;;;;7.88;5.20;;;;;;;;;;10236066;28;20035;-72
2022/03/10 11:13:31;;;;;;;9.38;5.65;;;;;;;;;;10227053;29;20045;-71
2022/03/10 11:18:40;;;;;;;8.57;4.93;;;;;;;;;;10224021;29;20039;-72
2022/03/10 11:23:49;;;;;;;9.95;5.13;;;;;;;;;;10240041;28;20123;-71
2022/03/10 11:28:53;;;;;;;9.02;4.75;;;;;;;;;;10241803;28;20043;-72
2022/03/10 11:33:58;;;;;;;7.22;5.00;;;;;;;;;;10242838;29;20427;-73
2022/03/10 11:39:04;;;;;;;8.40;5.00;;;;;;;;;;10249185;28;20043;-71
2022/03/10 11:44:08;;;;;;;7.03;4.65;;;;;;;;;;10222994;28;20583;-73
2022/03/10 11:49:14;;;;;;;7.68;4.50;;;;;;;;;;10245068;28;20035;-74
2022/03/10 11:54:18;;;;;;;6.82;4.40;;;;;;;;;;10243915;28;20062;-72
2022/03/10 11:59:23;;;;;;;6.70;4.53;;;;;;;;;;10236765;28;20043;-72
2022/03/10 12:04:36;;;;;;;6.72;4.50;;;;;;;;;;10226352;29;20587;-72
2022/03/10 12:09:41;;;;;;;5.57;4.05;;;;;;;;;;10221411;29;20502;-71
2022/03/10 12:14:46;;;;;;;9.50;5.60;;;;;;;;;;10239526;28;20121;-73
2022/03/10 12:20:04;;;;;;;9.68;6.22;;;;;;;;;;10239274;28;20484;-72
2022/03/10 12:25:21;;;;;;;10.43;6.10;;;;;;;;;;10236528;28;20415;-74
2022/03/10 12:30:26;;;;;;;9.50;5.80;;;;;;;;;;10238801;28;20058;-73
2022/03/10 12:35:30;;;;;;;9.70;5.93;;;;;;;;;;10216765;28;20031;-73
2022/03/10 12:40:35;;;;;;;8.77;5.55;;;;;;;;;;10237259;28;20042;-72
2022/03/10 12:45:43;;;;;;;9.27;5.88;;;;;;;;;;10237654;28;20063;-70
2022/03/10 12:50:47;;;;;;;9.43;6.32;;;;;;;;;;10237148;28;20121;-72
2022/03/10 12:55:56;;;;;;;10.60;6.10;;;;;;;;;;10224698;28;20519;-73
2022/03/10 13:01:06;;;;;;;10.30;5.57;;;;;;;;;;10221363;28;20102;-71
2022/03/10 13:06:11;;;;;;;9.23;5.55;;;;;;;;;;10229015;28;20035;-72
2022/03/10 13:11:20;;;;;;;10.77;4.82;;;;;;;;;;10239407;28;20039;-72
2022/03/10 13:16:23;;;;;;;8.77;5.38;;;;;;;;;;10233996;29;20067;-72
2022/03/10 13:21:26;;;;;;;10.05;5.22;;;;;;;;;;10233119;28;20050;-72
2022/03/10 13:26:34;;;;;;;8.60;4.93;;;;;;;;;;10238013;29;20098;-72
2022/03/10 13:31:38;;;;;;;9.48;4.93;;;;;;;;;;10219493;29;20080;-72
2022/03/10 13:36:42;;;;;;;9.02;4.70;;;;;;;;;;10232849;29;20049;-72
2022/03/10 13:41:46;;;;;;;8.15;3.85;;;;;;;;;;10234416;28;20369;-73
2022/03/10 13:46:49;;;;;;;9.73;4.70;;;;;;;;;;10212444;29;20100;-73
2022/03/10 13:51:52;;;;;;;7.78;3.90;;;;;;;;;;10230723;28;20043;-71
2022/03/10 13:57:01;;;;;;;9.43;4.55;;;;;;;;;;10215765;28;20043;-71
2022/03/10 14:02:18;;;;;;;9.53;4.30;;;;;;;;;;10215624;28;20047;-72
2022/03/10 14:07:21;;;;;;;9.60;4.43;;;;;;;;;;10238795;28;20039;-70
2022/03/10 14:12:26;;;;;;;8.30;4.30;;;;;;;;;;10235674;28;20058;-73
2022/03/10 14:17:42;;;;;;;53.53;8.07;;;;;;;;;;10235754;28;20035;-71
2022/03/10 14:22:46;;;;;;;17.60;4.82;;;;;;;;;;10230861;28;20131;-71
2022/03/10 14:27:51;;;;;;;13.27;4.70;;;;;;;;;;10217658;28;20528;-72
2022/03/10 14:32:55;;;;;;;21.92;4.47;;;;;;;;;;10243155;28;20459;-73
2022/03/10 14:37:58;;;;;;;;;;;;;;;;;;10225448;29;20102;-72
2022/03/10 14:43:01;;;;;;;;;;;;;;;;;;10243771;28;19919;-73
2022/03/10 14:48:06;;;;;;;11.77;4.23;;;;;;;;;;10239835;28;19927;-72
2022/03/10 14:53:09;;;;;;;7.60;3.67;;;;;;;;;;10253721;23;20039;-67
2022/03/10 14:58:13;;;;;;;14.43;4.65;;;;;;;;;;10241272;28;20028;-68
2022/03/10 15:03:17;;;;;;;16.50;5.13;;;;;;;;;;10222395;29;20137;-67
2022/03/10 15:08:22;;;;;;;10.90;3.55;;;;;;;;;;10237725;28;20086;-67
2022/03/10 15:13:25;;;;;;;9.07;3.25;;;;;;;;;;10234958;28;20138;-69
2022/03/10 15:18:30;;;;;;;9.48;3.47;;;;;;;;;;10221614;28;20039;-68
2022/03/10 15:23:35;;;;;;;6.50;1.92;;;;;;;;;;10237662;28;20157;-66
2022/03/10 15:28:38;;;;;;;4.38;2.17;;;;;;;;;;10217501;28;20039;-67
2022/03/10 15:33:44;;;;;;;5.33;2.23;;;;;;;;;;10236286;28;20058;-66
2022/03/10 15:38:51;;;;;;;3.13;1.70;;;;;;;;;;10233469;28;20389;-67
2022/03/10 15:43:56;;;;;;;7.53;2.90;;;;;;;;;;10251797;28;20039;-68
2022/03/10 15:49:00;;;;;;;8.85;3.38;;;;;;;;;;10237881;28;20071;-66
2022/03/10 15:54:03;;;;;;;7.38;2.72;;;;;;;;;;10240144;28;20039;-67
2022/03/10 15:59:06;;;;;;;8.00;2.40;;;;;;;;;;10222425;28;20082;-67
2022/03/10 16:04:11;;;;;;;11.03;2.33;;;;;;;;;;10223930;29;20077;-68
2022/03/10 16:09:14;;;;;;;6.38;2.50;;;;;;;;;;10223739;29;20100;-67
2022/03/10 16:14:18;;;;;;;6.20;2.38;;;;;;;;;;10223512;29;20131;-68
2022/03/10 16:19:22;;;;;;;7.10;3.00;;;;;;;;;;10222010;29;20039;-68
2022/03/10 16:24:25;;;;;;;4.70;2.67;;;;;;;;;;10236710;28;20445;-68
2022/03/10 16:29:29;;;;;;;8.65;3.20;;;;;;;;;;10215747;29;20083;-67
2022/03/10 16:34:32;;;;;;;;;;;;;;;;;;10242897;28;20122;-68
2022/03/10 16:39:36;;;;;;;6.78;2.05;;;;;;;;;;10249519;28;19926;-65
2022/03/10 16:44:39;;;;;;;5.65;2.30;;;;;;;;;;10254030;28;20043;-69
2022/03/10 16:49:43;;;;;;;6.53;1.57;;;;;;;;;;10238504;28;20063;-68
2022/03/10 16:54:47;;;;;;;6.72;2.50;;;;;;;;;;10234622;28;20515;-68
2022/03/10 16:59:50;;;;;;;8.18;2.50;;;;;;;;;;10229002;29;20133;-68
2022/03/10 17:04:53;;;;;;;4.47;2.08;;;;;;;;;;10238844;28;20526;-69
2022/03/10 17:09:57;;;;;;;10.02;3.55;;;;;;;;;;10235785;28;20127;-69
2022/03/10 17:15:00;;;;;;;4.53;2.70;;;;;;;;;;10223470;28;20110;-68
2022/03/10 17:20:03;;;;;;;10.15;3.20;;;;;;;;;;10226152;29;20428;-68
2022/03/10 17:25:09;;;;;;;4.55;2.33;;;;;;;;;;10235576;28;20039;-67
2022/03/10 17:30:13;;;;;;;3.55;1.63;;;;;;;;;;10239948;28;20040;-68
2022/03/10 17:35:17;;;;;;;3.42;1.88;;;;;;;;;;10240062;28;20036;-68
2022/03/10 17:40:20;;;;;;;;;;;;;;;;;;10242083;28;20129;-68
2022/03/10 17:45:25;;;;;;;8.48;3.22;;;;;;;;;;10247678;28;19922;-69
2022/03/10 17:50:28;;;;;;;10.50;3.05;;;;;;;;;;10233562;28;20047;-68
2022/03/10 17:55:32;;;;;;;6.32;2.75;;;;;;;;;;10247628;28;20129;-69
2022/03/10 18:00:36;;;;;;;6.30;2.75;;;;;;;;;;10231709;28;20514;-68
2022/03/10 18:05:39;;;;;;;10.52;2.65;;;;;;;;;;10232134;28;20047;-68
2022/03/10 18:10:46;;;;;;;7.25;3.08;;;;;;;;;;10240564;28;20034;-68
2022/03/10 18:15:51;;;;;;;8.02;2.83;;;;;;;;;;10228063;29;20085;-67
2022/03/10 18:20:54;;;;;;;7.00;3.00;;;;;;;;;;10242706;29;20050;-67
2022/03/10 18:25:57;;;;;;;8.38;3.13;;;;;;;;;;10224067;29;20411;-68
2022/03/10 18:31:01;;;;;;;4.45;2.22;;;;;;;;;;10249193;28;20051;-69
2022/03/10 18:36:05;;;;;;;5.20;1.85;;;;;;;;;;10252742;28;20094;-66
2022/03/10 18:41:08;;;;;;;;;;;;;;;;;;10249402;28;20162;-69
2022/03/10 18:46:14;;;;;;;5.38;2.15;;;;;;;;;;10259113;28;19927;-68
2022/03/10 18:51:17;;;;;;;6.43;2.15;;;;;;;;;;10233586;28;20043;-68
2022/03/10 18:56:32;;;;;;;6.10;2.95;;;;;;;;;;10260385;28;20324;-68
2022/03/10 19:01:37;;;;;;;4.25;2.47;;;;;;;;;;10238670;28;20031;-69
2022/03/10 19:06:40;;;;;;;5.20;2.43;;;;;;;;;;10242349;28;20047;-69
2022/03/10 19:11:43;;;;;;;6.30;2.72;;;;;;;;;;10247559;28;20039;-70
2022/03/10 19:16:47;;;;;;;5.90;1.90;;;;;;;;;;10233899;28;20121;-67
2022/03/10 19:21:50;;;;;;;5.57;2.43;;;;;;;;;;10216957;28;20506;-67
2022/03/10 19:26:53;;;;;;;4.53;2.30;;;;;;;;;;10241064;28;20046;-67
2022/03/10 19:31:58;;;;;;;4.73;1.73;;;;;;;;;;10227750;28;20559;-67
2022/03/10 19:37:01;;;;;;;6.53;2.80;;;;;;;;;;10242232;28;20039;-68
2022/03/10 19:42:05;;;;;;;2.73;1.27;;;;;;;;;;10241749;28;20043;-67
2022/03/10 19:47:08;;;;;;;;;;;;;;;;;;10223469;29;20165;-68
2022/03/10 19:52:12;;;;;;;7.40;3.03;;;;;;;;;;10221272;28;20136;-70
2022/03/10 19:57:15;;;;;;;7.77;2.50;;;;;;;;;;10242923;28;20196;-66
2022/03/10 20:02:18;;;;;;;4.13;2.07;;;;;;;;;;10219562;28;20713;-67
2022/03/10 20:07:22;;;;;;;6.57;2.80;;;;;;;;;;10240068;29;20062;-69
2022/03/10 20:12:27;;;;;;;5.97;2.93;;;;;;;;;;10223252;28;20146;-68
2022/03/10 20:17:29;;;;;;;8.77;2.73;;;;;;;;;;10230360;29;20059;-68
2022/03/10 20:22:35;;;;;;;6.47;2.80;;;;;;;;;;10239025;28;20042;-68
2022/03/10 20:27:39;;;;;;;8.87;3.43;;;;;;;;;;10220990;28;20095;-68
2022/03/10 20:32:42;;;;;;;12.33;5.10;;;;;;;;;;10240094;28;20093;-68
2022/03/10 20:37:47;;;;;;;10.63;3.67;;;;;;;;;;10227264;28;20097;-68
2022/03/10 20:42:49;;;;;;;;;;;;;;;;;;10227406;28;20105;-67
2022/03/10 20:47:53;;;;;;;10.77;4.00;;;;;;;;;;10239660;28;20421;-66
2022/03/10 20:52:57;;;;;;;10.48;4.90;;;;;;;;;;10267995;23;20444;-69
2022/03/10 20:58:00;;;;;;;;;;;;;;;;;;10260429;28;20045;-68
2022/03/10 21:03:03;;;;;;;9.43;2.87;;;;;;;;;;10274376;28;19922;-71
2022/03/10 21:08:08;;;;;;;9.00;3.77;;;;;;;;;;10278229;28;20035;-70
2022/03/10 21:13:11;;;;;;;8.80;4.07;;;;;;;;;;10263861;28;20059;-72
2022/03/10 21:18:14;;;;;;;13.97;5.90;;;;;;;;;;10274954;28;20035;-69
2022/03/10 21:23:18;;;;;;;19.43;7.07;;;;;;;;;;10244608;28;20074;-71
2022/03/10 21:28:22;;;;;;;;;;;;;;;;;;10278677;28;20031;-71
2022/03/10 21:33:27;;;;;;;9.60;3.73;;;;;;;;;;10295563;28;20394;-70
2022/03/10 21:38:31;;;;;;;15.73;5.70;;;;;;;;;;10285770;28;20601;-70
2022/03/10 21:43:34;;;;;;;;;;;;;;;;;;10289150;28;20050;-70
2022/03/10 21:48:37;;;;;;;14.63;4.67;;;;;;;;;;10285675;28;19933;-70
2022/03/10 21:53:41;;;;;;;10.27;3.90;;;;;;;;;;10289452;28;20061;-69
2022/03/10 21:58:44;;;;;;;12.73;6.30;;;;;;;;;;10279947;28;20039;-71
2022/03/10 22:03:47;;;;;;;9.73;4.27;;;;;;;;;;10269694;28;20055;-71
2022/03/10 22:08:52;;;;;;;13.03;5.17;;;;;;;;;;10283545;28;20076;-72
2022/03/10 22:13:55;;;;;;;14.83;5.43;;;;;;;;;;10297541;28;20038;-72
2022/03/10 22:19:02;;;;;;;8.98;4.45;;;;;;;;;;10280861;28;20047;-72
2022/03/10 22:24:07;;;;;;;19.10;6.67;;;;;;;;;;10280147;28;20503;-70
2022/03/10 22:29:09;;;;;;;13.20;4.80;;;;;;;;;;10281201;28;20038;-72
2022/03/10 22:34:12;;;;;;;15.53;6.47;;;;;;;;;;10288613;28;20030;-70
2022/03/10 22:39:17;;;;;;;9.20;3.73;;;;;;;;;;10269340;28;20082;-71
2022/03/10 22:44:20;;;;;;;13.75;5.53;;;;;;;;;;10264606;28;20093;-70
2022/03/10 22:49:23;;;;;;;14.30;5.97;;;;;;;;;;10289188;28;20035;-71
2022/03/10 22:54:27;;;;;;;17.57;5.53;;;;;;;;;;10266336;28;20583;-70
2022/03/10 22:59:30;;;;;;;14.95;6.45;;;;;;;;;;10271071;28;20294;-72
2022/03/10 23:09:55;;;;;;;19.70;6.87;;;;;;;;;;10282863;28;20526;-71
2022/03/10 23:14:58;;;;;;;16.77;5.25;;;;;;;;;;10287129;28;20050;-72
2022/03/10 23:20:01;;;;;;;14.63;5.03;;;;;;;;;;10279750;28;20043;-72
2022/03/10 23:25:06;;;;;;;18.13;6.00;;;;;;;;;;10268349;28;20034;-71
2022/03/10 23:30:09;;;;;;;12.97;5.03;;;;;;;;;;10267628;28;20066;-71
2022/03/10 23:35:14;;;;;;;14.55;5.38;;;;;;;;;;10272513;28;20047;-72
2022/03/10 23:40:19;;;;;;;8.10;3.33;;;;;;;;;;10264400;28;20039;-71
2022/03/10 23:45:22;;;;;;;11.43;5.67;;;;;;;;;;10284948;28;20038;-71
2022/03/10 23:50:26;;;;;;;17.00;6.40;;;;;;;;;;10282889;28;20093;-72
2022/03/10 23:55:31;;;;;;;;;;;;;;;;;;10284394;28;20050;-72
